sensor_id;sensor_type;location;lat;lon;timestamp;P1;durP1;ratioP1;P2;durP2;ratioP2
67352;SDS011;54238;52.278;21.056;2023-03-04T00:00:56;40.80;;;18.40;;
67352;SDS011;54238;52.278;21.056;2023-03-04T00:03:30;34.10;;;17.30;;
67352;SDS011;54238;52.278;21.056;2023-03-04T00:06:03;29.80;;;15.20;;
67352;SDS011;54238;52.278;21.056;2023-03-04T00:08:33;38.40;;;19.30;;
67352;SDS011;54238;52.278;21.056;2023-03-04T00:11:05;33.70;;;17.90;;
67352;SDS011;54238;52.278;21.056;2023-03-04T00:13:35;23.70;;;12.50;;
67352;SDS011;54238;52.278;21.056;2023-03-04T00:16:08;40.90;;;18.70;;
67352;SDS011;54238;52.278;21.056;2023-03-04T00:18:43;30.50;;;15.30;;
67352;SDS011;54238;52.278;21.056;2023-03-04T00:21:10;32.30;;;16.90;;
67352;SDS011;54238;52.278;21.056;2023-03-04T00:23:41;34.20;;;17.00;;
67352;SDS011;54238;52.278;21.056;2023-03-04T00:26:09;24.90;;;14.20;;
67352;SDS011;54238;52.278;21.056;2023-03-04T00:28:36;33.00;;;15.90;;
67352;SDS011;54238;52.278;21.056;2023-03-04T00:31:08;31.20;;;16.50;;
67352;SDS011;54238;52.278;21.056;2023-03-04T00:33:36;32.60;;;17.40;;
67352;SDS011;54238;52.278;21.056;2023-03-04T00:36:06;34.30;;;18.40;;
67352;SDS011;54238;52.278;21.056;2023-03-04T00:38:37;31.30;;;14.30;;
67352;SDS011;54238;52.278;21.056;2023-03-04T00:41:09;30.80;;;13.70;;
67352;SDS011;54238;52.278;21.056;2023-03-04T00:43:44;31.20;;;16.60;;
67352;SDS011;54238;52.278;21.056;2023-03-04T00:46:11;30.30;;;14.80;;
67352;SDS011;54238;52.278;21.056;2023-03-04T00:51:37;36.40;;;16.80;;
67352;SDS011;54238;52.278;21.056;2023-03-04T00:54:04;39.60;;;18.00;;
67352;SDS011;54238;52.278;21.056;2023-03-04T00:56:31;30.80;;;16.90;;
67352;SDS011;54238;52.278;21.056;2023-03-04T00:58:58;34.10;;;16.20;;
67352;SDS011;54238;52.278;21.056;2023-03-04T01:01:25;38.20;;;18.20;;
67352;SDS011;54238;52.278;21.056;2023-03-04T01:03:55;44.50;;;21.20;;
67352;SDS011;54238;52.278;21.056;2023-03-04T01:06:24;32.30;;;15.90;;
67352;SDS011;54238;52.278;21.056;2023-03-04T01:08:58;34.00;;;16.00;;
67352;SDS011;54238;52.278;21.056;2023-03-04T01:11:25;36.80;;;17.40;;
67352;SDS011;54238;52.278;21.056;2023-03-04T01:13:55;35.50;;;17.60;;
67352;SDS011;54238;52.278;21.056;2023-03-04T01:16:22;38.00;;;17.40;;
67352;SDS011;54238;52.278;21.056;2023-03-04T01:18:51;39.30;;;18.00;;
67352;SDS011;54238;52.278;21.056;2023-03-04T01:21:21;39.60;;;17.40;;
67352;SDS011;54238;52.278;21.056;2023-03-04T01:23:52;45.80;;;19.40;;
67352;SDS011;54238;52.278;21.056;2023-03-04T01:26:22;33.70;;;16.90;;
67352;SDS011;54238;52.278;21.056;2023-03-04T01:28:49;29.60;;;13.60;;
67352;SDS011;54238;52.278;21.056;2023-03-04T01:31:16;38.20;;;17.10;;
67352;SDS011;54238;52.278;21.056;2023-03-04T01:33:43;36.80;;;16.80;;
67352;SDS011;54238;52.278;21.056;2023-03-04T01:36:12;42.80;;;17.20;;
67352;SDS011;54238;52.278;21.056;2023-03-04T01:38:39;42.80;;;18.40;;
67352;SDS011;54238;52.278;21.056;2023-03-04T01:41:12;38.70;;;17.80;;
67352;SDS011;54238;52.278;21.056;2023-03-04T01:43:40;31.00;;;16.00;;
67352;SDS011;54238;52.278;21.056;2023-03-04T01:46:11;38.00;;;18.20;;
67352;SDS011;54238;52.278;21.056;2023-03-04T01:48:44;40.50;;;18.70;;
67352;SDS011;54238;52.278;21.056;2023-03-04T01:51:19;37.30;;;19.10;;
67352;SDS011;54238;52.278;21.056;2023-03-04T01:53:50;43.00;;;17.90;;
67352;SDS011;54238;52.278;21.056;2023-03-04T01:56:29;44.20;;;19.60;;
67352;SDS011;54238;52.278;21.056;2023-03-04T02:01:47;34.30;;;15.20;;
67352;SDS011;54238;52.278;21.056;2023-03-04T02:04:25;35.60;;;16.20;;
67352;SDS011;54238;52.278;21.056;2023-03-04T02:06:59;32.90;;;14.60;;
67352;SDS011;54238;52.278;21.056;2023-03-04T02:09:32;33.30;;;16.40;;
67352;SDS011;54238;52.278;21.056;2023-03-04T02:12:01;33.10;;;17.00;;
67352;SDS011;54238;52.278;21.056;2023-03-04T02:14:28;33.20;;;15.90;;
67352;SDS011;54238;52.278;21.056;2023-03-04T02:16:55;47.90;;;18.50;;
67352;SDS011;54238;52.278;21.056;2023-03-04T02:22:18;31.90;;;15.50;;
67352;SDS011;54238;52.278;21.056;2023-03-04T02:25:14;36.40;;;18.80;;
67352;SDS011;54238;52.278;21.056;2023-03-04T02:27:50;36.70;;;16.80;;
67352;SDS011;54238;52.278;21.056;2023-03-04T02:30:20;43.20;;;18.90;;
67352;SDS011;54238;52.278;21.056;2023-03-04T02:32:54;38.10;;;16.60;;
67352;SDS011;54238;52.278;21.056;2023-03-04T02:35:23;31.10;;;15.40;;
67352;SDS011;54238;52.278;21.056;2023-03-04T02:37:53;36.70;;;17.30;;
67352;SDS011;54238;52.278;21.056;2023-03-04T02:40:28;33.80;;;15.40;;
67352;SDS011;54238;52.278;21.056;2023-03-04T02:42:59;40.70;;;18.10;;
67352;SDS011;54238;52.278;21.056;2023-03-04T02:45:47;40.30;;;18.50;;
67352;SDS011;54238;52.278;21.056;2023-03-04T02:48:19;47.10;;;21.20;;
67352;SDS011;54238;52.278;21.056;2023-03-04T02:50:51;37.90;;;16.90;;
67352;SDS011;54238;52.278;21.056;2023-03-04T02:53:21;47.10;;;21.10;;
67352;SDS011;54238;52.278;21.056;2023-03-04T02:55:56;40.00;;;17.90;;
67352;SDS011;54238;52.278;21.056;2023-03-04T02:58:25;38.00;;;17.90;;
67352;SDS011;54238;52.278;21.056;2023-03-04T03:00:55;44.80;;;19.40;;
67352;SDS011;54238;52.278;21.056;2023-03-04T03:03:25;32.90;;;16.60;;
67352;SDS011;54238;52.278;21.056;2023-03-04T03:05:54;32.50;;;16.90;;
67352;SDS011;54238;52.278;21.056;2023-03-04T03:08:22;31.40;;;16.40;;
67352;SDS011;54238;52.278;21.056;2023-03-04T03:10:50;27.70;;;13.10;;
67352;SDS011;54238;52.278;21.056;2023-03-04T03:13:19;37.80;;;18.40;;
67352;SDS011;54238;52.278;21.056;2023-03-04T03:15:49;38.50;;;17.40;;
67352;SDS011;54238;52.278;21.056;2023-03-04T03:18:44;30.60;;;15.40;;
67352;SDS011;54238;52.278;21.056;2023-03-04T03:21:11;32.30;;;17.10;;
67352;SDS011;54238;52.278;21.056;2023-03-04T03:23:41;39.60;;;18.10;;
67352;SDS011;54238;52.278;21.056;2023-03-04T03:26:13;44.90;;;19.20;;
67352;SDS011;54238;52.278;21.056;2023-03-04T03:28:46;38.00;;;17.90;;
67352;SDS011;54238;52.278;21.056;2023-03-04T03:31:16;30.20;;;15.60;;
67352;SDS011;54238;52.278;21.056;2023-03-04T03:33:46;34.60;;;17.40;;
67352;SDS011;54238;52.278;21.056;2023-03-04T03:36:15;43.60;;;20.90;;
67352;SDS011;54238;52.278;21.056;2023-03-04T03:38:42;40.10;;;18.40;;
67352;SDS011;54238;52.278;21.056;2023-03-04T03:41:11;36.50;;;18.60;;
67352;SDS011;54238;52.278;21.056;2023-03-04T03:43:38;40.60;;;19.20;;
67352;SDS011;54238;52.278;21.056;2023-03-04T03:46:08;41.70;;;21.70;;
67352;SDS011;54238;52.278;21.056;2023-03-04T03:48:37;38.10;;;18.10;;
67352;SDS011;54238;52.278;21.056;2023-03-04T03:51:04;41.70;;;19.00;;
67352;SDS011;54238;52.278;21.056;2023-03-04T03:53:34;38.90;;;18.60;;
67352;SDS011;54238;52.278;21.056;2023-03-04T03:56:03;41.80;;;18.60;;
67352;SDS011;54238;52.278;21.056;2023-03-04T03:58:33;35.20;;;17.20;;
67352;SDS011;54238;52.278;21.056;2023-03-04T04:01:04;36.90;;;17.80;;
67352;SDS011;54238;52.278;21.056;2023-03-04T04:03:37;39.40;;;18.90;;
67352;SDS011;54238;52.278;21.056;2023-03-04T04:06:11;39.70;;;20.00;;
67352;SDS011;54238;52.278;21.056;2023-03-04T04:08:40;37.40;;;18.70;;
67352;SDS011;54238;52.278;21.056;2023-03-04T04:11:10;35.50;;;17.50;;
67352;SDS011;54238;52.278;21.056;2023-03-04T04:13:42;34.20;;;16.90;;
67352;SDS011;54238;52.278;21.056;2023-03-04T04:16:09;36.60;;;16.70;;
67352;SDS011;54238;52.278;21.056;2023-03-04T04:18:37;38.00;;;16.50;;
67352;SDS011;54238;52.278;21.056;2023-03-04T04:21:09;32.20;;;17.00;;
67352;SDS011;54238;52.278;21.056;2023-03-04T04:23:36;26.30;;;14.60;;
67352;SDS011;54238;52.278;21.056;2023-03-04T04:26:06;34.40;;;17.70;;
67352;SDS011;54238;52.278;21.056;2023-03-04T04:28:40;39.80;;;19.90;;
67352;SDS011;54238;52.278;21.056;2023-03-04T04:31:09;33.60;;;16.70;;
67352;SDS011;54238;52.278;21.056;2023-03-04T04:33:37;35.10;;;17.40;;
67352;SDS011;54238;52.278;21.056;2023-03-04T04:36:12;38.40;;;19.60;;
67352;SDS011;54238;52.278;21.056;2023-03-04T04:38:45;40.50;;;19.60;;
67352;SDS011;54238;52.278;21.056;2023-03-04T04:41:28;35.80;;;17.50;;
67352;SDS011;54238;52.278;21.056;2023-03-04T04:44:00;45.50;;;22.60;;
67352;SDS011;54238;52.278;21.056;2023-03-04T04:46:30;35.00;;;17.60;;
67352;SDS011;54238;52.278;21.056;2023-03-04T04:49:00;33.60;;;17.70;;
67352;SDS011;54238;52.278;21.056;2023-03-04T04:51:31;37.70;;;18.70;;
67352;SDS011;54238;52.278;21.056;2023-03-04T04:54:00;34.50;;;18.00;;
67352;SDS011;54238;52.278;21.056;2023-03-04T04:59:23;40.00;;;19.20;;
67352;SDS011;54238;52.278;21.056;2023-03-04T05:01:52;35.90;;;17.80;;
67352;SDS011;54238;52.278;21.056;2023-03-04T05:04:19;39.50;;;20.30;;
67352;SDS011;54238;52.278;21.056;2023-03-04T05:06:47;34.40;;;16.80;;
67352;SDS011;54238;52.278;21.056;2023-03-04T05:09:16;32.30;;;15.50;;
67352;SDS011;54238;52.278;21.056;2023-03-04T05:11:45;32.70;;;17.50;;
67352;SDS011;54238;52.278;21.056;2023-03-04T05:14:17;28.80;;;16.00;;
67352;SDS011;54238;52.278;21.056;2023-03-04T05:16:44;41.80;;;20.80;;
67352;SDS011;54238;52.278;21.056;2023-03-04T05:19:15;38.50;;;19.30;;
67352;SDS011;54238;52.278;21.056;2023-03-04T05:21:42;38.40;;;19.60;;
67352;SDS011;54238;52.278;21.056;2023-03-04T05:24:11;40.30;;;18.60;;
67352;SDS011;54238;52.278;21.056;2023-03-04T05:26:40;35.30;;;17.90;;
67352;SDS011;54238;52.278;21.056;2023-03-04T05:29:10;38.70;;;17.30;;
67352;SDS011;54238;52.278;21.056;2023-03-04T05:31:42;27.70;;;15.20;;
67352;SDS011;54238;52.278;21.056;2023-03-04T05:34:13;31.40;;;16.60;;
67352;SDS011;54238;52.278;21.056;2023-03-04T05:36:42;24.20;;;14.40;;
67352;SDS011;54238;52.278;21.056;2023-03-04T05:39:12;29.80;;;14.90;;
67352;SDS011;54238;52.278;21.056;2023-03-04T05:41:39;28.40;;;13.80;;
67352;SDS011;54238;52.278;21.056;2023-03-04T05:44:10;32.50;;;17.60;;
67352;SDS011;54238;52.278;21.056;2023-03-04T05:46:40;26.30;;;13.80;;
67352;SDS011;54238;52.278;21.056;2023-03-04T05:49:06;25.60;;;14.10;;
67352;SDS011;54238;52.278;21.056;2023-03-04T05:51:34;32.30;;;16.40;;
67352;SDS011;54238;52.278;21.056;2023-03-04T05:54:01;25.00;;;14.30;;
67352;SDS011;54238;52.278;21.056;2023-03-04T05:56:28;25.00;;;13.40;;
67352;SDS011;54238;52.278;21.056;2023-03-04T05:58:59;27.80;;;15.10;;
67352;SDS011;54238;52.278;21.056;2023-03-04T06:01:30;31.10;;;16.90;;
67352;SDS011;54238;52.278;21.056;2023-03-04T06:04:02;31.20;;;16.30;;
67352;SDS011;54238;52.278;21.056;2023-03-04T06:06:30;35.10;;;16.30;;
67352;SDS011;54238;52.278;21.056;2023-03-04T06:09:06;25.70;;;14.60;;
67352;SDS011;54238;52.278;21.056;2023-03-04T06:11:33;25.60;;;14.20;;
67352;SDS011;54238;52.278;21.056;2023-03-04T06:14:00;23.60;;;13.60;;
67352;SDS011;54238;52.278;21.056;2023-03-04T06:16:30;29.80;;;11.00;;
67352;SDS011;54238;52.278;21.056;2023-03-04T06:19:02;31.20;;;14.10;;
67352;SDS011;54238;52.278;21.056;2023-03-04T06:21:31;28.60;;;13.40;;
67352;SDS011;54238;52.278;21.056;2023-03-04T06:23:58;26.40;;;13.80;;
67352;SDS011;54238;52.278;21.056;2023-03-04T06:26:28;25.00;;;13.50;;
67352;SDS011;54238;52.278;21.056;2023-03-04T06:28:55;26.40;;;15.00;;
67352;SDS011;54238;52.278;21.056;2023-03-04T06:31:23;29.70;;;14.60;;
67352;SDS011;54238;52.278;21.056;2023-03-04T06:33:50;26.20;;;14.00;;
67352;SDS011;54238;52.278;21.056;2023-03-04T06:36:19;25.60;;;13.60;;
67352;SDS011;54238;52.278;21.056;2023-03-04T06:38:48;21.30;;;12.00;;
67352;SDS011;54238;52.278;21.056;2023-03-04T06:41:18;25.60;;;13.80;;
67352;SDS011;54238;52.278;21.056;2023-03-04T06:43:47;27.00;;;14.50;;
67352;SDS011;54238;52.278;21.056;2023-03-04T06:46:14;25.00;;;13.20;;
67352;SDS011;54238;52.278;21.056;2023-03-04T06:48:44;27.50;;;15.10;;
67352;SDS011;54238;52.278;21.056;2023-03-04T06:51:11;29.00;;;16.50;;
67352;SDS011;54238;52.278;21.056;2023-03-04T06:53:39;27.70;;;13.60;;
67352;SDS011;54238;52.278;21.056;2023-03-04T06:56:09;31.60;;;16.90;;
67352;SDS011;54238;52.278;21.056;2023-03-04T06:58:37;22.60;;;11.40;;
67352;SDS011;54238;52.278;21.056;2023-03-04T07:01:24;27.00;;;13.20;;
67352;SDS011;54238;52.278;21.056;2023-03-04T07:03:53;34.60;;;17.20;;
67352;SDS011;54238;52.278;21.056;2023-03-04T07:06:26;27.50;;;14.30;;
67352;SDS011;54238;52.278;21.056;2023-03-04T07:08:55;23.70;;;13.30;;
67352;SDS011;54238;52.278;21.056;2023-03-04T07:11:25;36.70;;;18.50;;
67352;SDS011;54238;52.278;21.056;2023-03-04T07:13:52;30.90;;;15.30;;
67352;SDS011;54238;52.278;21.056;2023-03-04T07:16:27;23.40;;;12.00;;
67352;SDS011;54238;52.278;21.056;2023-03-04T07:19:01;29.90;;;12.60;;
67352;SDS011;54238;52.278;21.056;2023-03-04T07:21:31;22.10;;;12.20;;
67352;SDS011;54238;52.278;21.056;2023-03-04T07:24:01;31.30;;;14.70;;
67352;SDS011;54238;52.278;21.056;2023-03-04T07:26:30;28.20;;;15.30;;
67352;SDS011;54238;52.278;21.056;2023-03-04T07:28:57;21.80;;;12.40;;
67352;SDS011;54238;52.278;21.056;2023-03-04T07:31:33;30.10;;;13.10;;
67352;SDS011;54238;52.278;21.056;2023-03-04T07:34:04;23.40;;;13.20;;
67352;SDS011;54238;52.278;21.056;2023-03-04T07:39:38;24.70;;;13.20;;
67352;SDS011;54238;52.278;21.056;2023-03-04T07:42:08;20.70;;;11.70;;
67352;SDS011;54238;52.278;21.056;2023-03-04T07:44:38;33.20;;;15.50;;
67352;SDS011;54238;52.278;21.056;2023-03-04T07:47:09;27.10;;;13.80;;
67352;SDS011;54238;52.278;21.056;2023-03-04T07:49:41;28.00;;;13.50;;
67352;SDS011;54238;52.278;21.056;2023-03-04T07:52:16;24.10;;;11.60;;
67352;SDS011;54238;52.278;21.056;2023-03-04T07:54:45;23.20;;;13.70;;
67352;SDS011;54238;52.278;21.056;2023-03-04T07:57:16;28.20;;;13.40;;
67352;SDS011;54238;52.278;21.056;2023-03-04T07:59:45;26.60;;;11.80;;
67352;SDS011;54238;52.278;21.056;2023-03-04T08:02:17;27.00;;;11.50;;
67352;SDS011;54238;52.278;21.056;2023-03-04T08:04:46;23.30;;;12.40;;
67352;SDS011;54238;52.278;21.056;2023-03-04T08:07:13;27.70;;;12.80;;
67352;SDS011;54238;52.278;21.056;2023-03-04T08:09:43;24.10;;;13.20;;
67352;SDS011;54238;52.278;21.056;2023-03-04T08:12:14;24.80;;;12.40;;
67352;SDS011;54238;52.278;21.056;2023-03-04T08:14:46;24.90;;;12.80;;
67352;SDS011;54238;52.278;21.056;2023-03-04T08:17:17;24.60;;;13.00;;
67352;SDS011;54238;52.278;21.056;2023-03-04T08:19:46;22.60;;;13.20;;
67352;SDS011;54238;52.278;21.056;2023-03-04T08:22:13;21.30;;;11.80;;
67352;SDS011;54238;52.278;21.056;2023-03-04T08:24:47;21.30;;;12.50;;
67352;SDS011;54238;52.278;21.056;2023-03-04T08:27:21;29.00;;;15.00;;
67352;SDS011;54238;52.278;21.056;2023-03-04T08:29:51;26.40;;;12.70;;
67352;SDS011;54238;52.278;21.056;2023-03-04T08:32:20;17.00;;;9.20;;
67352;SDS011;54238;52.278;21.056;2023-03-04T08:34:47;25.50;;;12.60;;
67352;SDS011;54238;52.278;21.056;2023-03-04T08:37:16;20.90;;;11.10;;
67352;SDS011;54238;52.278;21.056;2023-03-04T08:39:48;16.40;;;9.20;;
67352;SDS011;54238;52.278;21.056;2023-03-04T08:42:16;19.90;;;10.00;;
67352;SDS011;54238;52.278;21.056;2023-03-04T08:44:43;30.40;;;12.80;;
67352;SDS011;54238;52.278;21.056;2023-03-04T08:47:10;28.30;;;11.30;;
67352;SDS011;54238;52.278;21.056;2023-03-04T08:49:37;19.30;;;10.90;;
67352;SDS011;54238;52.278;21.056;2023-03-04T08:52:09;23.00;;;11.60;;
67352;SDS011;54238;52.278;21.056;2023-03-04T08:54:44;23.10;;;10.90;;
67352;SDS011;54238;52.278;21.056;2023-03-04T08:57:33;19.80;;;9.40;;
67352;SDS011;54238;52.278;21.056;2023-03-04T09:00:02;23.20;;;13.10;;
67352;SDS011;54238;52.278;21.056;2023-03-04T09:02:35;24.50;;;13.30;;
67352;SDS011;54238;52.278;21.056;2023-03-04T09:05:07;27.40;;;9.90;;
67352;SDS011;54238;52.278;21.056;2023-03-04T09:07:35;16.90;;;8.80;;
67352;SDS011;54238;52.278;21.056;2023-03-04T09:10:07;19.50;;;9.50;;
67352;SDS011;54238;52.278;21.056;2023-03-04T09:12:39;26.90;;;13.50;;
67352;SDS011;54238;52.278;21.056;2023-03-04T09:15:14;25.60;;;12.20;;
67352;SDS011;54238;52.278;21.056;2023-03-04T09:17:43;18.50;;;10.60;;
67352;SDS011;54238;52.278;21.056;2023-03-04T09:20:11;25.00;;;12.80;;
67352;SDS011;54238;52.278;21.056;2023-03-04T09:22:40;35.00;;;15.00;;
67352;SDS011;54238;52.278;21.056;2023-03-04T09:25:10;22.10;;;11.00;;
67352;SDS011;54238;52.278;21.056;2023-03-04T09:27:45;30.10;;;12.60;;
67352;SDS011;54238;52.278;21.056;2023-03-04T09:30:14;22.20;;;10.00;;
67352;SDS011;54238;52.278;21.056;2023-03-04T09:32:48;25.60;;;11.00;;
67352;SDS011;54238;52.278;21.056;2023-03-04T09:35:20;28.70;;;12.90;;
67352;SDS011;54238;52.278;21.056;2023-03-04T09:37:47;21.30;;;10.40;;
67352;SDS011;54238;52.278;21.056;2023-03-04T09:40:19;26.10;;;13.30;;
67352;SDS011;54238;52.278;21.056;2023-03-04T09:42:53;24.50;;;11.20;;
67352;SDS011;54238;52.278;21.056;2023-03-04T09:45:32;29.50;;;12.90;;
67352;SDS011;54238;52.278;21.056;2023-03-04T09:48:06;24.50;;;12.00;;
67352;SDS011;54238;52.278;21.056;2023-03-04T09:54:07;18.60;;;9.70;;
67352;SDS011;54238;52.278;21.056;2023-03-04T09:56:48;20.00;;;10.60;;
67352;SDS011;54238;52.278;21.056;2023-03-04T10:05:09;19.40;;;10.00;;
67352;SDS011;54238;52.278;21.056;2023-03-04T10:10:29;18.60;;;8.20;;
67352;SDS011;54238;52.278;21.056;2023-03-04T10:13:13;25.70;;;12.10;;
67352;SDS011;54238;52.278;21.056;2023-03-04T10:15:47;18.50;;;8.30;;
67352;SDS011;54238;52.278;21.056;2023-03-04T10:18:24;27.40;;;12.10;;
67352;SDS011;54238;52.278;21.056;2023-03-04T10:24:07;20.10;;;10.90;;
67352;SDS011;54238;52.278;21.056;2023-03-04T10:26:43;24.70;;;11.80;;
67352;SDS011;54238;52.278;21.056;2023-03-04T10:29:19;22.10;;;10.50;;
67352;SDS011;54238;52.278;21.056;2023-03-04T10:31:50;23.00;;;10.80;;
67352;SDS011;54238;52.278;21.056;2023-03-04T10:34:17;23.00;;;11.80;;
67352;SDS011;54238;52.278;21.056;2023-03-04T10:37:04;23.00;;;10.70;;
67352;SDS011;54238;52.278;21.056;2023-03-04T10:39:44;24.80;;;10.00;;
67352;SDS011;54238;52.278;21.056;2023-03-04T10:44:59;29.60;;;13.30;;
67352;SDS011;54238;52.278;21.056;2023-03-04T10:47:31;25.40;;;11.20;;
67352;SDS011;54238;52.278;21.056;2023-03-04T10:50:03;26.00;;;11.70;;
67352;SDS011;54238;52.278;21.056;2023-03-04T10:52:48;32.40;;;13.40;;
67352;SDS011;54238;52.278;21.056;2023-03-04T10:55:25;23.90;;;10.90;;
67352;SDS011;54238;52.278;21.056;2023-03-04T10:58:06;24.20;;;10.50;;
67352;SDS011;54238;52.278;21.056;2023-03-04T11:00:57;28.50;;;12.40;;
67352;SDS011;54238;52.278;21.056;2023-03-04T11:03:46;23.70;;;11.30;;
67352;SDS011;54238;52.278;21.056;2023-03-04T11:06:20;32.00;;;11.80;;
67352;SDS011;54238;52.278;21.056;2023-03-04T11:08:58;26.80;;;11.20;;
67352;SDS011;54238;52.278;21.056;2023-03-04T11:11:40;25.20;;;11.10;;
67352;SDS011;54238;52.278;21.056;2023-03-04T11:14:41;24.20;;;10.60;;
67352;SDS011;54238;52.278;21.056;2023-03-04T11:17:22;28.50;;;10.90;;
67352;SDS011;54238;52.278;21.056;2023-03-04T11:20:13;17.80;;;10.30;;
67352;SDS011;54238;52.278;21.056;2023-03-04T11:22:49;23.20;;;11.10;;
67352;SDS011;54238;52.278;21.056;2023-03-04T11:25:25;23.30;;;11.80;;
67352;SDS011;54238;52.278;21.056;2023-03-04T11:28:02;28.40;;;13.30;;
67352;SDS011;54238;52.278;21.056;2023-03-04T11:30:59;20.60;;;7.80;;
67352;SDS011;54238;52.278;21.056;2023-03-04T11:39:07;25.20;;;11.20;;
67352;SDS011;54238;52.278;21.056;2023-03-04T11:41:50;29.90;;;11.70;;
67352;SDS011;54238;52.278;21.056;2023-03-04T11:44:30;19.30;;;9.10;;
67352;SDS011;54238;52.278;21.056;2023-03-04T11:55:53;22.10;;;9.10;;
67352;SDS011;54238;52.278;21.056;2023-03-04T12:04:43;18.50;;;9.70;;
67352;SDS011;54238;52.278;21.056;2023-03-04T12:07:53;21.90;;;10.80;;
67352;SDS011;54238;52.278;21.056;2023-03-04T12:10:39;20.70;;;10.10;;
67352;SDS011;54238;52.278;21.056;2023-03-04T12:31:05;15.70;;;8.30;;
67352;SDS011;54238;52.278;21.056;2023-03-04T12:36:37;16.80;;;8.80;;
67352;SDS011;54238;52.278;21.056;2023-03-04T12:39:45;19.40;;;8.50;;
67352;SDS011;54238;52.278;21.056;2023-03-04T12:48:08;17.00;;;8.20;;
67352;SDS011;54238;52.278;21.056;2023-03-04T12:50:53;19.50;;;9.70;;
67352;SDS011;54238;52.278;21.056;2023-03-04T12:53:32;14.70;;;8.00;;
67352;SDS011;54238;52.278;21.056;2023-03-04T12:56:21;18.00;;;9.40;;
67352;SDS011;54238;52.278;21.056;2023-03-04T12:58:53;18.90;;;8.00;;
67352;SDS011;54238;52.278;21.056;2023-03-04T13:09:38;13.10;;;6.60;;
67352;SDS011;54238;52.278;21.056;2023-03-04T13:12:22;13.20;;;6.00;;
67352;SDS011;54238;52.278;21.056;2023-03-04T13:17:54;13.00;;;6.20;;
67352;SDS011;54238;52.278;21.056;2023-03-04T13:20:40;13.50;;;6.30;;
67352;SDS011;54238;52.278;21.056;2023-03-04T13:25:41;16.10;;;7.90;;
67352;SDS011;54238;52.278;21.056;2023-03-04T13:35:58;12.00;;;5.50;;
67352;SDS011;54238;52.278;21.056;2023-03-04T13:41:31;7.10;;;2.90;;
67352;SDS011;54238;52.278;21.056;2023-03-04T13:47:15;3.80;;;1.50;;
67352;SDS011;54238;52.278;21.056;2023-03-04T13:49:45;4.50;;;2.00;;
67352;SDS011;54238;52.278;21.056;2023-03-04T13:58:02;5.10;;;2.50;;
67352;SDS011;54238;52.278;21.056;2023-03-04T14:00:51;4.40;;;2.20;;
67352;SDS011;54238;52.278;21.056;2023-03-04T14:03:27;7.30;;;2.20;;
67352;SDS011;54238;52.278;21.056;2023-03-04T14:08:52;5.00;;;2.50;;
67352;SDS011;54238;52.278;21.056;2023-03-04T14:11:33;6.00;;;2.10;;
67352;SDS011;54238;52.278;21.056;2023-03-04T14:14:10;6.60;;;2.10;;
67352;SDS011;54238;52.278;21.056;2023-03-04T14:16:59;7.70;;;2.50;;
67352;SDS011;54238;52.278;21.056;2023-03-04T14:19:32;6.40;;;2.70;;
67352;SDS011;54238;52.278;21.056;2023-03-04T14:25:01;6.60;;;2.60;;
67352;SDS011;54238;52.278;21.056;2023-03-04T14:27:34;8.10;;;2.70;;
67352;SDS011;54238;52.278;21.056;2023-03-04T14:30:05;7.50;;;2.70;;
67352;SDS011;54238;52.278;21.056;2023-03-04T14:32:47;6.30;;;2.60;;
67352;SDS011;54238;52.278;21.056;2023-03-04T14:35:22;7.10;;;3.00;;
67352;SDS011;54238;52.278;21.056;2023-03-04T14:38:03;8.90;;;3.00;;
67352;SDS011;54238;52.278;21.056;2023-03-04T14:40:41;5.30;;;2.80;;
67352;SDS011;54238;52.278;21.056;2023-03-04T14:43:19;8.10;;;3.00;;
67352;SDS011;54238;52.278;21.056;2023-03-04T14:45:50;4.80;;;2.40;;
67352;SDS011;54238;52.278;21.056;2023-03-04T14:48:32;6.70;;;3.60;;
67352;SDS011;54238;52.278;21.056;2023-03-04T14:51:05;8.90;;;3.30;;
67352;SDS011;54238;52.278;21.056;2023-03-04T14:53:35;6.50;;;3.40;;
67352;SDS011;54238;52.278;21.056;2023-03-04T14:56:08;7.00;;;3.60;;
67352;SDS011;54238;52.278;21.056;2023-03-04T14:58:38;11.50;;;3.70;;
67352;SDS011;54238;52.278;21.056;2023-03-04T15:01:29;6.10;;;3.50;;
67352;SDS011;54238;52.278;21.056;2023-03-04T15:04:04;8.70;;;3.60;;
67352;SDS011;54238;52.278;21.056;2023-03-04T15:06:37;5.70;;;3.10;;
67352;SDS011;54238;52.278;21.056;2023-03-04T15:09:23;6.80;;;2.90;;
67352;SDS011;54238;52.278;21.056;2023-03-04T15:11:59;7.10;;;2.50;;
67352;SDS011;54238;52.278;21.056;2023-03-04T15:14:52;7.60;;;3.00;;
67352;SDS011;54238;52.278;21.056;2023-03-04T15:25:24;4.20;;;1.80;;
67352;SDS011;54238;52.278;21.056;2023-03-04T15:27:52;6.50;;;2.10;;
67352;SDS011;54238;52.278;21.056;2023-03-04T15:30:27;4.70;;;1.60;;
67352;SDS011;54238;52.278;21.056;2023-03-04T15:32:59;4.50;;;1.40;;
67352;SDS011;54238;52.278;21.056;2023-03-04T15:35:31;5.70;;;2.30;;
67352;SDS011;54238;52.278;21.056;2023-03-04T15:38:05;4.70;;;1.80;;
67352;SDS011;54238;52.278;21.056;2023-03-04T15:40:42;5.70;;;1.90;;
67352;SDS011;54238;52.278;21.056;2023-03-04T15:43:16;4.90;;;1.40;;
67352;SDS011;54238;52.278;21.056;2023-03-04T15:45:51;4.10;;;1.60;;
67352;SDS011;54238;52.278;21.056;2023-03-04T15:48:18;5.40;;;1.60;;
67352;SDS011;54238;52.278;21.056;2023-03-04T15:50:59;18.30;;;2.10;;
67352;SDS011;54238;52.278;21.056;2023-03-04T15:53:45;4.40;;;1.90;;
67352;SDS011;54238;52.278;21.056;2023-03-04T15:56:17;3.30;;;1.70;;
67352;SDS011;54238;52.278;21.056;2023-03-04T16:01:37;4.70;;;1.70;;
67352;SDS011;54238;52.278;21.056;2023-03-04T16:06:44;8.00;;;2.20;;
67352;SDS011;54238;52.278;21.056;2023-03-04T16:09:19;5.30;;;1.80;;
67352;SDS011;54238;52.278;21.056;2023-03-04T16:11:48;8.50;;;1.70;;
67352;SDS011;54238;52.278;21.056;2023-03-04T16:14:18;4.30;;;1.60;;
67352;SDS011;54238;52.278;21.056;2023-03-04T16:16:49;6.40;;;2.10;;
67352;SDS011;54238;52.278;21.056;2023-03-04T16:19:18;10.60;;;2.70;;
67352;SDS011;54238;52.278;21.056;2023-03-04T16:21:45;6.70;;;2.30;;
67352;SDS011;54238;52.278;21.056;2023-03-04T16:24:17;4.20;;;1.70;;
67352;SDS011;54238;52.278;21.056;2023-03-04T16:26:46;5.70;;;1.50;;
67352;SDS011;54238;52.278;21.056;2023-03-04T16:29:17;5.50;;;1.60;;
67352;SDS011;54238;52.278;21.056;2023-03-04T16:31:45;6.30;;;2.10;;
67352;SDS011;54238;52.278;21.056;2023-03-04T16:36:54;4.70;;;1.80;;
67352;SDS011;54238;52.278;21.056;2023-03-04T16:39:24;5.70;;;2.00;;
67352;SDS011;54238;52.278;21.056;2023-03-04T16:45:33;10.60;;;2.60;;
67352;SDS011;54238;52.278;21.056;2023-03-04T16:48:01;4.60;;;1.70;;
67352;SDS011;54238;52.278;21.056;2023-03-04T16:50:29;6.40;;;1.70;;
67352;SDS011;54238;52.278;21.056;2023-03-04T16:53:05;4.50;;;1.70;;
67352;SDS011;54238;52.278;21.056;2023-03-04T16:55:46;6.00;;;1.50;;
67352;SDS011;54238;52.278;21.056;2023-03-04T16:58:12;3.70;;;1.40;;
67352;SDS011;54238;52.278;21.056;2023-03-04T17:00:41;2.40;;;1.30;;
67352;SDS011;54238;52.278;21.056;2023-03-04T17:03:10;3.20;;;1.40;;